Time;durP1;ratioP1;P1;durP2;ratioP2;P2;SDS_P1;SDS_P2;PMS_P1;PMS_P2;Temp;Humidity;BMP_temperature;BMP_pressure;BME280_temperature;BME280_humidity;BME280_pressure;Samples;Min_cycle;Max_cycle;Signal;HPM_P1;HPM_P2
2023/03/25 00:02:14;;;;;;;;;;;;;;;9.55;nan;99783.56;5004580;28;19933;-84
2023/03/25 00:04:40;;;;;;;;;;;;;;;9.54;nan;99782.75;5018354;28;19931;-85
2023/03/25 00:07:05;;;;;;;;;;;;;;;9.49;nan;99785.06;5020962;28;19944;-85
2023/03/25 00:09:31;;;;;;;;;;;;;;;9.42;nan;99778.78;5011679;28;19913;-85
2023/03/25 00:11:56;;;;;;;;;;;;;;;9.41;nan;99785.03;5021372;28;19951;-85
2023/03/25 00:14:23;;;;;;;;;;;;;;;9.39;nan;99796.72;5022175;28;20010;-85
2023/03/25 00:16:51;;;;;;;;;;;;;;;9.33;nan;99800.84;5024818;28;19913;-84
2023/03/25 00:19:20;;;;;;;;;;;;;;;9.25;nan;99795.56;5041601;28;19921;-85
2023/03/25 00:21:49;;;;;;;;;;;;;;;9.24;nan;99802.63;5023505;28;19981;-85
2023/03/25 00:24:16;;;;;;;;;;;;;;;9.19;nan;99807.56;5021762;28;19913;-83
2023/03/25 00:26:42;;;;;;;;;;;;;;;9.12;nan;99815.28;5028947;28;19967;-84
2023/03/25 00:29:08;;;;;;;;;;;;;;;9.06;nan;99821.22;5029925;28;19952;-85
2023/03/25 00:31:33;;;;;;;;;;;;;;;8.95;nan;99818.88;5021291;28;19917;-85
2023/03/25 00:33:59;;;;;;;;;;;;;;;8.87;nan;99817.03;5022262;28;19917;-85
2023/03/25 00:36:26;;;;;;;;;;;;;;;8.83;nan;99826.22;5034568;28;19980;-84
2023/03/25 00:38:53;;;;;;;;;;;;;;;8.84;nan;99821.78;5039292;28;19917;-85
2023/03/25 00:41:26;;;;;;;;;;;;;;;8.83;nan;99815.69;5037217;28;19925;-85
2023/03/25 00:43:52;;;;;;;;;;;;;;;8.86;nan;99817.16;5019707;28;19924;-85
2023/03/25 00:46:17;;;;;;;;;;;;;;;8.89;nan;99819.47;5016621;28;20090;-85
2023/03/25 00:48:43;;;;;;;;;;;;;;;8.92;nan;99809.47;5018462;28;19916;-85
2023/03/25 00:51:12;;;;;;;;;;;;;;;8.90;nan;99802.69;5031119;28;19996;-85
2023/03/25 00:53:38;;;;;;;;;;;;;;;8.87;nan;99811.75;5018640;28;19921;-85
2023/03/25 00:56:03;;;;;;;;;;;;;;;8.87;nan;99816.22;5007025;28;19991;-85
2023/03/25 00:58:29;;;;;;;;;;;;;;;8.88;nan;99817.84;5023085;28;20283;-85
2023/03/25 01:00:58;;;;;;;;;;;;;;;8.90;nan;99819.34;5020220;28;20374;-85
2023/03/25 01:03:24;;;;;;;;;;;;;;;8.92;nan;99814.75;5015857;28;19983;-85
2023/03/25 01:05:53;;;;;;;;;;;;;;;8.97;nan;99803.72;5032345;28;19925;-85
2023/03/25 01:08:24;;;;;;;;;;;;;;;8.99;nan;99800.94;5022893;28;19921;-84
2023/03/25 01:10:53;;;;;;;;;;;;;;;9.01;nan;99791.88;5014761;28;20286;-84
2023/03/25 01:13:19;;;;;;;;;;;;;;;9.00;nan;99792.84;5023553;28;19975;-84
2023/03/25 01:15:44;;;;;;;;;;;;;;;9.02;nan;99790.88;5022938;28;19920;-85
2023/03/25 01:18:10;;;;;;;;;;;;;;;9.05;nan;99784.44;5013769;28;19913;-85
2023/03/25 01:20:35;;;;;;;;;;;;;;;9.03;nan;99789.88;5011644;28;19948;-85
2023/03/25 01:23:01;;;;;;;;;;;;;;;9.06;nan;99783.47;5022394;28;19953;-83
2023/03/25 01:25:27;;;;;;;;;;;;;;;9.08;nan;99781.47;5024617;28;19913;-84
2023/03/25 01:27:52;;;;;;;;;;;;;;;9.10;nan;99779.53;5022461;28;20047;-84
2023/03/25 01:30:18;;;;;;;;;;;;;;;9.10;nan;99777.69;5021946;28;20297;-84
2023/03/25 01:32:43;;;;;;;;;;;;;;;9.09;nan;99780.50;5022118;28;19920;-84
2023/03/25 01:35:10;;;;;;;;;;;;;;;9.03;nan;99776.69;5019396;28;19914;-86
2023/03/25 01:37:37;;;;;;;;;;;;;;;9.04;nan;99759.91;5000344;28;19913;-85
2023/03/25 01:40:09;;;;;;;;;;;;;;;9.00;nan;99755.91;4999850;28;19913;-85
2023/03/25 01:42:34;;;;;;;;;;;;;;;9.05;nan;99752.81;5018663;28;19925;-85
2023/03/25 01:45:14;;;;;;;;;;;;;;;9.03;nan;99768.78;5011979;28;19917;-84
2023/03/25 01:47:39;;;;;;;;;;;;;;;8.84;nan;99764.63;5024839;28;19969;-86
2023/03/25 01:50:13;;;;;;;;;;;;;;;8.67;nan;99763.72;5004673;28;19951;-86
2023/03/25 01:52:40;;;;;;;;;;;;;;;8.55;nan;99770.25;4998580;28;19921;-86
2023/03/25 01:55:05;;;;;;;;;;;;;;;8.48;nan;99774.50;5006760;28;20015;-86
2023/03/25 01:57:31;;;;;;;;;;;;;;;8.41;nan;99781.38;5016727;28;19949;-86
2023/03/25 01:59:56;;;;;;;;;;;;;;;8.35;nan;99793.31;5026013;28;19917;-86
2023/03/25 02:02:24;;;;;;;;;;;;;;;8.32;nan;99795.44;5020598;28;20023;-85
2023/03/25 02:04:57;;;;;;;;;;;;;;;8.25;nan;99811.06;5010772;28;20000;-86
2023/03/25 02:07:29;;;;;;;;;;;;;;;8.19;nan;99823.00;5011393;28;19917;-84
2023/03/25 02:09:56;;;;;;;;;;;;;;;8.17;nan;99793.38;5011019;28;20374;-85
2023/03/25 02:12:21;;;;;;;;;;;;;;;8.10;nan;99792.31;5029879;28;19917;-85
2023/03/25 02:14:46;;;;;;;;;;;;;;;7.99;nan;99779.44;5029673;28;19918;-84
2023/03/25 02:17:30;;;;;;;;;;;;;;;7.93;nan;99753.72;5029568;28;19917;-85
2023/03/25 02:20:14;;;;;;;;;;;;;;;7.84;nan;99761.56;5012015;28;20536;-85
2023/03/25 02:22:54;;;;;;;;;;;;;;;7.70;nan;99754.22;5015567;28;19917;-85
2023/03/25 02:25:23;;;;;;;;;;;;;;;7.64;nan;99762.69;5016414;28;19917;-84
2023/03/25 02:27:48;;;;;;;;;;;;;;;7.62;nan;99765.47;5007818;28;20386;-84
2023/03/25 02:30:25;;;;;;;;;;;;;;;7.60;nan;99769.22;5026797;28;20402;-84
2023/03/25 02:32:59;;;;;;;;;;;;;;;7.56;nan;99775.78;5029558;28;19963;-84
2023/03/25 02:35:48;;;;;;;;;;;;;;;7.54;nan;99781.19;5032021;28;20397;-85
2023/03/25 02:38:16;;;;;;;;;;;;;;;7.42;nan;99799.00;5032944;28;19920;-84
2023/03/25 02:40:47;;;;;;;;;;;;;;;7.34;nan;99803.34;5016054;28;19923;-84
2023/03/25 02:43:21;;;;;;;;;;;;;;;7.27;nan;99797.88;5014069;28;19971;-84
2023/03/25 02:45:48;;;;;;;;;;;;;;;7.21;nan;99795.81;5007598;28;19927;-85
2023/03/25 02:48:18;;;;;;;;;;;;;;;7.18;nan;99811.91;5031598;28;19944;-84
2023/03/25 02:50:47;;;;;;;;;;;;;;;7.14;nan;99806.09;5030091;28;21999;-85
2023/03/25 02:53:15;;;;;;;;;;;;;;;7.10;nan;99799.47;5013673;28;20346;-85
2023/03/25 02:55:43;;;;;;;;;;;;;;;7.07;nan;99807.66;5012428;28;19917;-84
2023/03/25 02:58:10;;;;;;;;;;;;;;;7.06;nan;99802.56;5012004;28;19929;-84
2023/03/25 03:00:37;;;;;;;;;;;;;;;7.04;nan;99804.50;5033043;28;19917;-85
2023/03/25 03:03:03;;;;;;;;;;;;;;;7.04;nan;99815.84;5028904;28;20034;-84
2023/03/25 03:05:30;;;;;;;;;;;;;;;7.14;nan;99800.84;5009454;28;19913;-84
2023/03/25 03:08:07;;;;;;;;;;;;;;;7.15;nan;99799.03;5033327;28;19973;-84
2023/03/25 03:10:47;;;;;;;;;;;;;;;7.22;nan;99800.09;5028112;28;19917;-84
2023/03/25 03:13:20;;;;;;;;;;;;;;;7.24;nan;99808.66;5033833;28;20039;-84
2023/03/25 03:15:53;;;;;;;;;;;;;;;7.29;nan;99793.25;5010572;28;20388;-83
2023/03/25 03:18:33;;;;;;;;;;;;;;;7.36;nan;99801.41;5036362;28;19921;-84
2023/03/25 03:21:05;;;;;;;;;;;;;;;7.39;nan;99796.69;5044904;28;19905;-84
2023/03/25 03:23:47;;;;;;;;;;;;;;;7.47;nan;99792.47;5050915;28;19924;-85
2023/03/25 03:26:22;;;;;;;;;;;;;;;7.49;nan;99788.72;5045490;28;20492;-84
2023/03/25 03:28:51;;;;;;;;;;;;;;;7.55;nan;99789.91;5037182;28;20014;-85
2023/03/25 03:31:31;;;;;;;;;;;;;;;7.56;nan;99781.06;5009969;28;19925;-84
2023/03/25 03:34:01;;;;;;;;;;;;;;;7.60;nan;99780.59;5010267;28;19916;-84
2023/03/25 03:36:29;;;;;;;;;;;;;;;7.62;nan;99783.88;5004351;28;19917;-84
2023/03/25 03:39:00;;;;;;;;;;;;;;;7.60;nan;99790.28;5011493;28;19925;-85
2023/03/25 03:41:27;;;;;;;;;;;;;;;7.60;nan;99795.53;5013845;28;20341;-85
2023/03/25 03:44:02;;;;;;;;;;;;;;;7.59;nan;99793.91;5034118;28;20011;-84
2023/03/25 03:46:30;;;;;;;;;;;;;;;7.60;nan;99791.13;5015506;28;19917;-85
2023/03/25 03:48:57;;;;;;;;;;;;;;;7.61;nan;99798.03;5014505;28;19971;-84
2023/03/25 03:51:23;;;;;;;;;;;;;;;7.63;nan;99797.91;5015619;28;19925;-83
2023/03/25 03:53:57;;;;;;;;;;;;;;;7.61;nan;99795.41;5024699;28;19918;-85
2023/03/25 03:56:25;;;;;;;;;;;;;;;7.63;nan;99795.25;5028601;28;20353;-84
2023/03/25 03:58:53;;;;;;;;;;;;;;;7.63;nan;99800.53;5030683;28;19959;-85
2023/03/25 04:01:26;;;;;;;;;;;;;;;7.61;nan;99805.09;5023143;28;19923;-85
2023/03/25 04:03:55;;;;;;;;;;;;;;;7.60;nan;99804.28;5003791;28;20003;-84
2023/03/25 04:06:26;;;;;;;;;;;;;;;7.58;nan;99810.66;5024680;28;19926;-85
2023/03/25 04:08:57;;;;;;;;;;;;;;;7.58;nan;99806.25;5026800;28;19913;-84
2023/03/25 04:11:25;;;;;;;;;;;;;;;7.61;nan;99826.16;5031998;28;20328;-84
2023/03/25 04:13:53;;;;;;;;;;;;;;;7.59;nan;99821.03;5029771;28;19936;-84
2023/03/25 04:16:18;;;;;;;;;;;;;;;7.64;nan;99815.31;5013728;28;19948;-84
2023/03/25 04:18:46;;;;;;;;;;;;;;;7.63;nan;99814.50;5023925;28;19975;-84
2023/03/25 04:21:14;;;;;;;;;;;;;;;7.63;nan;99814.50;5011093;28;19917;-83
2023/03/25 04:23:40;;;;;;;;;;;;;;;7.63;nan;99805.78;5028279;28;19920;-84
2023/03/25 04:26:05;;;;;;;;;;;;;;;7.66;nan;99806.31;5024156;28;19948;-84
2023/03/25 04:28:30;;;;;;;;;;;;;;;7.71;nan;99805.03;5025922;28;19924;-83
2023/03/25 04:30:59;;;;;;;;;;;;;;;7.69;nan;99806.97;5012705;28;19921;-83
2023/03/25 04:33:24;;;;;;;;;;;;;;;7.70;nan;99808.63;5008937;28;19922;-85
2023/03/25 04:35:50;;;;;;;;;;;;;;;7.69;nan;99815.69;5009617;28;19978;-84
2023/03/25 04:38:16;;;;;;;;;;;;;;;7.71;nan;99821.63;5029926;28;19921;-85
2023/03/25 04:40:45;;;;;;;;;;;;;;;7.71;nan;99819.00;5028134;28;19917;-84
2023/03/25 04:43:11;;;;;;;;;;;;;;;7.73;nan;99821.50;5007267;28;20008;-83
2023/03/25 04:45:36;;;;;;;;;;;;;;;7.71;nan;99824.28;5028520;28;19960;-83
2023/03/25 04:48:04;;;;;;;;;;;;;;;7.72;nan;99823.28;5012279;28;19929;-84
2023/03/25 04:50:30;;;;;;;;;;;;;;;7.75;nan;99827.44;5009562;28;19928;-84
2023/03/25 04:53:02;;;;;;;;;;;;;;;7.74;nan;99823.97;5028597;28;20290;-84
2023/03/25 04:55:28;;;;;;;;;;;;;;;7.73;nan;99821.50;5023061;28;19929;-84
2023/03/25 04:57:54;;;;;;;;;;;;;;;7.71;nan;99824.28;5032391;28;19921;-83
2023/03/25 05:00:21;;;;;;;;;;;;;;;7.76;nan;99823.81;5031198;28;19923;-83
2023/03/25 05:02:47;;;;;;;;;;;;;;;7.75;nan;99830.91;5007397;28;19923;-82
2023/03/25 05:05:19;;;;;;;;;;;;;;;7.74;nan;99831.84;5030198;28;19916;-83
2023/03/25 05:07:48;;;;;;;;;;;;;;;7.73;nan;99821.50;5030853;28;20004;-83
2023/03/25 05:10:17;;;;;;;;;;;;;;;7.75;nan;99817.75;5028739;28;20417;-84
2023/03/25 05:12:42;;;;;;;;;;;;;;;7.71;nan;99821.63;5031338;28;20238;-84
2023/03/25 05:15:08;;;;;;;;;;;;;;;7.74;nan;99812.63;5031819;28;19963;-83
2023/03/25 05:17:34;;;;;;;;;;;;;;;7.70;nan;99819.16;5031135;28;19917;-84
2023/03/25 05:19:59;;;;;;;;;;;;;;;7.61;nan;99824.34;5029302;28;19923;-84
2023/03/25 05:22:24;;;;;;;;;;;;;;;7.57;nan;99836.13;5029876;28;20015;-84
2023/03/25 05:24:52;;;;;;;;;;;;;;;7.50;nan;99834.25;5027895;28;19924;-83
2023/03/25 05:27:19;;;;;;;;;;;;;;;7.45;nan;99832.88;5022761;28;19917;-84
2023/03/25 05:29:44;;;;;;;;;;;;;;;7.43;nan;99841.91;5030792;28;20004;-84
2023/03/25 05:32:12;;;;;;;;;;;;;;;7.46;nan;99841.63;5013164;28;19971;-85
2023/03/25 05:34:37;;;;;;;;;;;;;;;7.46;nan;99839.00;5031340;28;20053;-84
2023/03/25 05:37:02;;;;;;;;;;;;;;;7.50;nan;99850.03;5029787;28;20430;-83
2023/03/25 05:39:27;;;;;;;;;;;;;;;7.56;nan;99857.34;5008933;28;19933;-83
2023/03/25 05:41:54;;;;;;;;;;;;;;;7.60;nan;99840.28;5025770;28;19917;-83
2023/03/25 05:44:19;;;;;;;;;;;;;;;7.65;nan;99857.28;5012702;28;19917;-84
2023/03/25 05:46:45;;;;;;;;;;;;;;;7.70;nan;99845.47;5012486;28;19924;-83
2023/03/25 05:49:10;;;;;;;;;;;;;;;7.72;nan;99846.16;5011736;28;19975;-84
2023/03/25 05:51:38;;;;;;;;;;;;;;;7.73;nan;99838.09;5020087;28;19921;-85
2023/03/25 05:54:09;;;;;;;;;;;;;;;7.78;nan;99845.56;5022724;28;19916;-83
2023/03/25 05:56:35;;;;;;;;;;;;;;;7.82;nan;99853.00;5031901;28;19945;-84
2023/03/25 05:59:01;;;;;;;;;;;;;;;7.85;nan;99868.47;5032066;28;20542;-84
2023/03/25 06:01:26;;;;;;;;;;;;;;;7.88;nan;99852.38;5032922;28;19921;-84
2023/03/25 06:03:51;;;;;;;;;;;;;;;7.88;nan;99862.91;5034372;28;19964;-84
2023/03/25 06:06:19;;;;;;;;;;;;;;;7.90;nan;99873.31;5015280;28;20341;-84
2023/03/25 06:08:45;;;;;;;;;;;;;;;7.89;nan;99876.94;5032655;28;19913;-84
2023/03/25 06:11:12;;;;;;;;;;;;;;;7.90;nan;99869.84;5006900;28;20055;-83
2023/03/25 06:13:38;;;;;;;;;;;;;;;7.93;nan;99872.16;5011963;28;19921;-83
2023/03/25 06:16:07;;;;;;;;;;;;;;;7.99;nan;99875.03;5025257;28;19970;-84
2023/03/25 06:18:32;;;;;;;;;;;;;;;8.04;nan;99875.41;5013105;28;19943;-84
2023/03/25 06:20:58;;;;;;;;;;;;;;;8.11;nan;99877.44;5017146;28;19924;-84
2023/03/25 06:23:25;;;;;;;;;;;;;;;8.14;nan;99883.22;5048029;28;19921;-84
2023/03/25 06:25:50;;;;;;;;;;;;;;;8.18;nan;99886.38;5039393;28;20362;-84
2023/03/25 06:28:19;;;;;;;;;;;;;;;8.19;nan;99890.66;5026375;28;19975;-84
2023/03/25 06:30:45;;;;;;;;;;;;;;;8.21;nan;99889.53;5007567;28;19960;-84
2023/03/25 06:33:12;;;;;;;;;;;;;;;8.21;nan;99883.44;5011240;28;19928;-83
2023/03/25 06:35:37;;;;;;;;;;;;;;;8.27;nan;99881.03;5024216;28;20406;-84
2023/03/25 06:38:03;;;;;;;;;;;;;;;8.27;nan;99881.03;5025318;28;19916;-84
2023/03/25 06:40:28;;;;;;;;;;;;;;;8.35;nan;99888.16;5010801;28;19917;-84
2023/03/25 06:42:53;;;;;;;;;;;;;;;8.35;nan;99889.97;5011249;28;19967;-84
2023/03/25 06:45:18;;;;;;;;;;;;;;;8.37;nan;99888.84;5027967;28;19944;-84
2023/03/25 06:47:43;;;;;;;;;;;;;;;8.37;nan;99893.28;5026488;28;19917;-84
2023/03/25 06:50:09;;;;;;;;;;;;;;;8.42;nan;99885.78;5028845;28;19928;-84
2023/03/25 06:52:34;;;;;;;;;;;;;;;8.50;nan;99891.91;5023206;28;19932;-83
2023/03/25 06:55:00;;;;;;;;;;;;;;;8.58;nan;99885.91;5036379;28;19928;-84
2023/03/25 06:57:25;;;;;;;;;;;;;;;8.64;nan;99885.25;5035735;28;20468;-84
2023/03/25 06:59:50;;;;;;;;;;;;;;;8.75;nan;99886.81;5033670;28;19925;-84
2023/03/25 07:02:15;;;;;;;;;;;;;;;8.81;nan;99877.47;5041143;28;20291;-83
2023/03/25 07:04:40;;;;;;;;;;;;;;;8.96;nan;99873.25;5036796;28;19921;-84
2023/03/25 07:07:07;;;;;;;;;;;;;;;9.43;nan;99864.84;5020638;28;19992;-84
2023/03/25 07:09:32;;;;;;;;;;;;;;;10.02;nan;99859.53;5036616;28;19917;-84
2023/03/25 07:11:57;;;;;;;;;;;;;;;10.63;nan;99862.66;5031466;28;19921;-84
2023/03/25 07:14:22;;;;;;;;;;;;;;;11.20;nan;99859.81;5017845;28;19917;-83
2023/03/25 07:16:48;;;;;;;;;;;;;;;11.49;nan;99853.06;5037384;28;20007;-84
2023/03/25 07:19:13;;;;;;;;;;;;;;;11.73;nan;99860.03;5041596;28;20051;-83
2023/03/25 07:21:38;;;;;;;;;;;;;;;12.16;nan;99851.63;5021755;28;19951;-84
2023/03/25 07:24:04;;;;;;;;;;;;;;;12.56;nan;99852.25;5017720;28;19917;-83
2023/03/25 07:26:29;;;;;;;;;;;;;;;12.84;nan;99849.78;5033831;28;20015;-84
2023/03/25 07:28:54;;;;;;;;;;;;;;;13.07;nan;99841.75;5031942;28;19921;-85
2023/03/25 07:31:20;;;;;;;;;;;;;;;13.06;nan;99840.06;5031442;28;19924;-84
2023/03/25 07:33:45;;;;;;;;;;;;;;;12.91;nan;99843.56;5029092;28;19944;-84
2023/03/25 07:36:11;;;;;;;;;;;;;;;13.17;nan;99831.66;5030829;28;19924;-85
2023/03/25 07:38:36;;;;;;;;;;;;;;;13.34;nan;99833.09;5028594;28;21084;-83
2023/03/25 07:41:06;;;;;;;;;;;;;;;13.59;nan;99824.81;5012328;28;19952;-85
2023/03/25 07:43:31;;;;;;;;;;;;;;;14.06;nan;99815.41;5029602;28;20068;-84
2023/03/25 07:45:57;;;;;;;;;;;;;;;14.39;nan;99825.50;5019294;28;19948;-85
2023/03/25 07:48:22;;;;;;;;;;;;;;;13.91;nan;99830.63;5018032;28;19945;-84
2023/03/25 07:50:49;;;;;;;;;;;;;;;14.41;nan;99829.59;5011100;28;19917;-84
2023/03/25 07:53:15;;;;;;;;;;;;;;;14.56;nan;99826.88;5014337;28;19931;-84
2023/03/25 07:55:40;;;;;;;;;;;;;;;14.62;nan;99839.41;5014322;28;19917;-85
2023/03/25 07:58:05;;;;;;;;;;;;;;;14.76;nan;99831.50;5017000;28;19981;-84
2023/03/25 08:00:30;;;;;;;;;;;;;;;14.94;nan;99834.44;5020023;28;19966;-85
2023/03/25 08:02:56;;;;;;;;;;;;;;;15.05;nan;99825.09;5020362;28;19921;-84
2023/03/25 08:05:21;;;;;;;;;;;;;;;15.38;nan;99824.41;5018944;28;20004;-85
2023/03/25 08:07:48;;;;;;;;;;;;;;;15.63;nan;99837.97;5034742;28;19917;-84
2023/03/25 08:10:17;;;;;;;;;;;;;;;15.50;nan;99833.47;5030063;28;19917;-84
2023/03/25 08:12:43;;;;;;;;;;;;;;;15.06;nan;99834.72;5002109;28;20494;-84
2023/03/25 08:15:09;;;;;;;;;;;;;;;14.09;nan;99843.47;5017936;28;19917;-84
2023/03/25 08:17:34;;;;;;;;;;;;;;;13.85;nan;99844.66;5036602;28;19963;-84
2023/03/25 08:20:04;;;;;;;;;;;;;;;13.65;nan;99849.78;5019127;28;20008;-84
2023/03/25 08:22:30;;;;;;;;;;;;;;;13.40;nan;99851.97;5021148;28;19924;-84
2023/03/25 08:24:55;;;;;;;;;;;;;;;13.07;nan;99857.66;5020887;28;19940;-84
2023/03/25 08:27:21;;;;;;;;;;;;;;;12.70;nan;99856.75;5018687;28;19987;-84
2023/03/25 08:29:53;;;;;;;;;;;;;;;12.33;nan;99855.78;5018676;28;20067;-84
2023/03/25 08:32:19;;;;;;;;;;;;;;;12.52;nan;99863.22;5019431;28;19917;-84
2023/03/25 08:34:44;;;;;;;;;;;;;;;12.62;nan;99857.66;5020060;28;19936;-84
2023/03/25 08:37:10;;;;;;;;;;;;;;;12.65;nan;99854.63;5031036;28;19914;-84
2023/03/25 08:39:38;;;;;;;;;;;;;;;12.84;nan;99865.72;5003342;28;19913;-85
2023/03/25 08:42:04;;;;;;;;;;;;;;;12.93;nan;99854.81;5019634;28;19987;-83
2023/03/25 08:44:29;;;;;;;;;;;;;;;12.87;nan;99850.28;5037355;28;19924;-84
2023/03/25 08:46:54;;;;;;;;;;;;;;;12.86;nan;99851.25;5020587;28;19924;-84
2023/03/25 08:49:20;;;;;;;;;;;;;;;12.88;nan;99843.13;5039615;28;19913;-83
2023/03/25 08:51:45;;;;;;;;;;;;;;;13.63;nan;99849.97;5022346;28;20226;-84
2023/03/25 08:54:10;;;;;;;;;;;;;;;15.04;nan;99842.06;5020650;28;20727;-83
2023/03/25 08:56:38;;;;;;;;;;;;;;;15.00;nan;99841.66;5017600;28;19913;-84
2023/03/25 08:59:04;;;;;;;;;;;;;;;14.84;nan;99841.97;5018707;28;20329;-85
2023/03/25 09:01:29;;;;;;;;;;;;;;;14.58;nan;99838.13;5006665;28;19917;-84
2023/03/25 09:03:56;;;;;;;;;;;;;;;14.44;nan;99842.53;5003383;28;20298;-84
2023/03/25 09:06:22;;;;;;;;;;;;;;;14.05;nan;99831.56;4999977;28;19941;-84
2023/03/25 09:08:48;;;;;;;;;;;;;;;13.69;nan;99845.75;5037956;28;19936;-84
2023/03/25 09:11:16;;;;;;;;;;;;;;;13.66;nan;99841.66;5023236;28;19913;-84
2023/03/25 09:13:42;;;;;;;;;;;;;;;13.49;nan;99846.38;5003994;28;19917;-83
2023/03/25 09:16:08;;;;;;;;;;;;;;;13.27;nan;99832.22;5036218;28;19947;-84
2023/03/25 09:18:35;;;;;;;;;;;;;;;13.08;nan;99843.38;5019296;28;19917;-83
2023/03/25 09:21:01;;;;;;;;;;;;;;;12.86;nan;99830.03;5041724;28;19944;-85
2023/03/25 09:23:27;;;;;;;;;;;;;;;12.65;nan;99840.56;5026636;28;19908;-83
2023/03/25 09:25:52;;;;;;;;;;;;;;;12.29;nan;99835.94;5018426;28;20149;-84
2023/03/25 09:28:18;;;;;;;;;;;;;;;12.06;nan;99838.59;5020415;28;19913;-84
2023/03/25 09:30:43;;;;;;;;;;;;;;;11.83;nan;99839.44;5035299;28;19924;-84
2023/03/25 09:33:09;;;;;;;;;;;;;;;11.67;nan;99837.69;5040446;28;19931;-84
2023/03/25 09:35:34;;;;;;;;;;;;;;;11.39;nan;99836.56;5005201;28;19922;-84
2023/03/25 09:38:00;;;;;;;;;;;;;;;11.12;nan;99846.63;5024231;28;20299;-85
2023/03/25 09:40:25;;;;;;;;;;;;;;;10.72;nan;99844.94;5014173;28;20003;-84
2023/03/25 09:42:54;;;;;;;;;;;;;;;10.56;nan;99853.75;5021894;28;19923;-85
2023/03/25 09:45:38;;;;;;;;;;;;;;;10.34;nan;99842.84;5020945;28;19925;-84
2023/03/25 09:48:13;;;;;;;;;;;;;;;10.28;nan;99846.16;5019830;28;19913;-85
2023/03/25 09:50:38;;;;;;;;;;;;;;;10.19;nan;99842.66;5024048;28;19917;-84
2023/03/25 09:53:06;;;;;;;;;;;;;;;10.08;nan;99836.88;5020888;28;20633;-84
2023/03/25 09:55:34;;;;;;;;;;;;;;;10.04;nan;99849.63;5038781;28;19917;-84
2023/03/25 09:58:04;;;;;;;;;;;;;;;10.17;nan;99842.00;5013518;28;19917;-84
2023/03/25 10:00:29;;;;;;;;;;;;;;;10.35;nan;99841.06;5029132;28;19987;-83
2023/03/25 10:03:04;;;;;;;;;;;;;;;10.75;nan;99849.88;5013067;28;19967;-84
2023/03/25 10:05:45;;;;;;;;;;;;;;;11.83;nan;99843.91;5020375;28;19921;-83
2023/03/25 10:08:25;;;;;;;;;;;;;;;13.24;nan;99845.81;5035832;28;19971;-84
2023/03/25 10:11:09;;;;;;;;;;;;;;;14.33;nan;99845.72;5016234;28;19945;-85
2023/03/25 10:13:37;;;;;;;;;;;;;;;14.40;nan;99848.44;5010506;28;20374;-85
2023/03/25 10:16:12;;;;;;;;;;;;;;;13.79;nan;99847.06;5031306;28;19940;-86
2023/03/25 10:18:52;;;;;;;;;;;;;;;14.33;nan;99844.91;5032282;28;19925;-83
2023/03/25 10:21:24;;;;;;;;;;;;;;;15.49;nan;99847.78;5011266;28;20460;-84
2023/03/25 10:23:49;;;;;;;;;;;;;;;16.23;nan;99841.59;5012365;28;20414;-84
2023/03/25 10:26:26;;;;;;;;;;;;;;;15.83;nan;99852.22;5000387;28;19925;-85
2023/03/25 10:28:55;;;;;;;;;;;;;;;15.55;nan;99843.50;5036039;28;19917;-85
2023/03/25 10:31:24;;;;;;;;;;;;;;;15.65;nan;99838.59;5020658;28;19917;-84
2023/03/25 10:33:56;;;;;;;;;;;;;;;15.02;nan;99849.47;5022235;28;19943;-85
2023/03/25 10:36:39;;;;;;;;;;;;;;;14.31;nan;99844.28;5034260;28;19917;-85
2023/03/25 10:39:11;;;;;;;;;;;;;;;13.86;nan;99847.16;5021596;28;20043;-83
2023/03/25 10:41:38;;;;;;;;;;;;;;;13.81;nan;99845.06;5005980;28;19994;-84
2023/03/25 10:44:08;;;;;;;;;;;;;;;13.62;nan;99843.03;5040094;28;19917;-83
2023/03/25 10:46:38;;;;;;;;;;;;;;;13.56;nan;99833.13;5037278;28;19917;-84
2023/03/25 10:49:03;;;;;;;;;;;;;;;13.38;nan;99820.28;5018144;28;19917;-84
2023/03/25 10:51:31;;;;;;;;;;;;;;;13.13;nan;99819.75;5019075;28;20335;-84
2023/03/25 10:53:56;;;;;;;;;;;;;;;12.80;nan;99808.72;5016777;28;20310;-83
2023/03/25 10:56:26;;;;;;;;;;;;;;;12.37;nan;99805.88;5019564;28;19924;-83
2023/03/25 10:58:53;;;;;;;;;;;;;;;12.08;nan;99788.91;5020831;28;19928;-83
2023/03/25 11:01:20;;;;;;;;;;;;;;;11.82;nan;99779.50;5036106;28;19921;-83
2023/03/25 11:03:50;;;;;;;;;;;;;;;11.62;nan;99786.28;5030209;28;19921;-84
2023/03/25 11:06:25;;;;;;;;;;;;;;;11.18;nan;99816.81;5020527;28;19923;-83
2023/03/25 11:08:58;;;;;;;;;;;;;;;10.68;nan;99831.25;5019145;28;19920;-85
2023/03/25 11:11:31;;;;;;;;;;;;;;;9.97;nan;99851.25;5037622;28;19918;-84
2023/03/25 11:13:56;;;;;;;;;;;;;;;9.51;nan;99856.97;5018213;28;19921;-84
2023/03/25 11:16:21;;;;;;;;;;;;;;;9.33;nan;99872.91;5017188;28;20001;-85
2023/03/25 11:18:47;;;;;;;;;;;;;;;9.18;nan;99897.44;5034035;28;19952;-85
2023/03/25 11:21:13;;;;;;;;;;;;;;;9.20;nan;99884.88;5019483;28;19944;-85
2023/03/25 11:23:38;;;;;;;;;;;;;;;;;;5007505;28;19962;-85
2023/03/25 11:26:05;;;;;;;;;;;;;;;9.55;nan;99897.88;5034861;28;19951;-84
2023/03/25 11:28:37;;;;;;;;;;;;;;;9.89;nan;99886.44;5033638;28;19928;-84
2023/03/25 11:31:22;;;;;;;;;;;;;;;9.92;nan;99894.00;5035361;28;19997;-84
2023/03/25 11:34:05;;;;;;;;;;;;;;;10.34;nan;99905.44;5032687;28;19920;-84
2023/03/25 11:36:34;;;;;;;;;;;;;;;10.61;nan;99917.50;5031846;28;20397;-84
2023/03/25 11:39:00;;;;;;;;;;;;;;;10.58;nan;99913.38;5033720;28;19924;-84
2023/03/25 11:41:33;;;;;;;;;;;;;;;10.47;nan;99921.66;5017153;28;19982;-83
2023/03/25 11:44:00;;;;;;;;;;;;;;;10.39;nan;99901.34;5017313;28;19928;-84
2023/03/25 11:46:25;;;;;;;;;;;;;;;10.32;nan;99910.91;5017215;28;19917;-84
2023/03/25 11:48:50;;;;;;;;;;;;;;;10.36;nan;99909.56;5032805;28;19924;-83
2023/03/25 11:51:20;;;;;;;;;;;;;;;10.49;nan;99916.22;5033658;28;19925;-84
2023/03/25 11:53:47;;;;;;;;;;;;;;;10.51;nan;99911.56;5030393;28;19968;-84
2023/03/25 11:56:16;;;;;;;;;;;;;;;10.65;nan;99897.66;5030915;28;19976;-83
2023/03/25 11:58:41;;;;;;;;;;;;;;;10.84;nan;99902.59;5016584;28;19928;-83
2023/03/25 12:01:18;;;;;;;;;;;;;;;10.97;nan;99895.97;5036354;28;19925;-82
2023/03/25 12:03:44;;;;;;;;;;;;;;;11.07;nan;99901.06;5019987;28;19921;-83
2023/03/25 12:06:17;;;;;;;;;;;;;;;11.15;nan;99907.13;5035083;28;19916;-84
2023/03/25 12:08:47;;;;;;;;;;;;;;;11.27;nan;99908.44;5035259;28;20453;-84
2023/03/25 12:11:15;;;;;;;;;;;;;;;11.33;nan;99908.72;5022346;28;19952;-83
2023/03/25 12:13:53;;;;;;;;;;;;;;;11.44;nan;99903.03;5016073;28;20306;-83
2023/03/25 12:16:46;;;;;;;;;;;;;;;12.06;nan;99900.41;5033327;28;20394;-83
2023/03/25 12:19:17;;;;;;;;;;;;;;;12.28;nan;99901.38;5032957;28;19917;-83
2023/03/25 12:22:01;;;;;;;;;;;;;;;12.22;nan;99891.47;5043357;28;19979;-83
2023/03/25 12:24:30;;;;;;;;;;;;;;;12.41;nan;99898.13;5047843;28;19943;-83
2023/03/25 12:27:10;;;;;;;;;;;;;;;12.62;nan;99889.47;5023539;28;19917;-83
2023/03/25 12:29:55;;;;;;;;;;;;;;;13.01;nan;99899.03;5018669;28;19996;-83
2023/03/25 12:32:43;;;;;;;;;;;;;;;13.07;nan;99887.69;5013416;28;19921;-83
2023/03/25 12:35:09;;;;;;;;;;;;;;;12.95;nan;99902.41;5019267;28;19917;-83
2023/03/25 12:37:53;;;;;;;;;;;;;;;12.98;nan;99887.97;5018051;28;19964;-83
2023/03/25 12:40:31;;;;;;;;;;;;;;;12.98;nan;99880.00;5003369;28;19933;-83
2023/03/25 12:43:09;;;;;;;;;;;;;;;13.16;nan;99875.16;5020484;28;20354;-83
2023/03/25 12:45:38;;;;;;;;;;;;;;;13.19;nan;99877.44;5035569;28;20143;-84
2023/03/25 12:48:10;;;;;;;;;;;;;;;12.87;nan;99879.47;5036466;28;19944;-84
2023/03/25 12:50:54;;;;;;;;;;;;;;;12.90;nan;99871.13;5037813;28;20020;-83
2023/03/25 12:53:26;;;;;;;;;;;;;;;12.77;nan;99862.97;5030926;28;20936;-83
2023/03/25 12:55:59;;;;;;;;;;;;;;;12.63;nan;99851.38;5016523;28;20287;-82
2023/03/25 12:58:36;;;;;;;;;;;;;;;12.49;nan;99858.28;5017407;28;19955;-82
2023/03/25 13:01:02;;;;;;;;;;;;;;;12.33;nan;99845.19;5016029;28;19917;-83
2023/03/25 13:03:30;;;;;;;;;;;;;;;12.19;nan;99838.84;5037771;28;19925;-83
2023/03/25 13:05:56;;;;;;;;;;;;;;;12.08;nan;99840.09;5026419;28;19923;-86
2023/03/25 13:08:27;;;;;;;;;;;;;;;11.97;nan;99845.00;5013196;28;19980;-86
2023/03/25 13:10:57;;;;;;;;;;;;;;;11.77;nan;99853.34;5035604;28;19913;-85
2023/03/25 13:13:24;;;;;;;;;;;;;;;12.00;nan;99856.06;5016713;28;19965;-86
2023/03/25 13:16:01;;;;;;;;;;;;;;;12.28;nan;99855.50;5017220;28;19913;-86
2023/03/25 13:18:31;;;;;;;;;;;;;;;12.52;nan;99846.50;5037198;28;19917;-85
2023/03/25 13:21:04;;;;;;;;;;;;;;;12.68;nan;99842.81;5019737;28;19913;-86
2023/03/25 13:23:32;;;;;;;;;;;;;;;12.82;nan;99838.53;5019152;28;19917;-85